ADDS METAR Data INFO
IDs: Format: Raw Decoded Include TAF

Data at: 0435 UTC 24 Apr 2018

KCNW 240355Z 00000KT 10SM SKC 14/12 A3005
KCNW 240255Z 03003KT 10SM SKC 15/12 A3003
KCNW 240155Z 03003KT 10SM SKC 18/12 A3001
KCNW 240055Z 36003KT 10SM SKC 22/11 A2998
KCNW 232355Z 01005KT 10SM SKC 24/11 A2998
KCNW 232255Z 33008KT 10SM SKC 25/10 A2998
KCNW 232155Z 34008G15KT 10SM SKC 25/10 A3000
KCNW 232055Z 31007KT 10SM SKC 24/11 A3003
KCNW 231955Z 31008KT 10SM SKC 24/10 A3006
KCNW 231655Z 33007KT 10SM SKC 19/11 A3012
KCNW 231555Z 34007KT 10SM SKC 18/10 A3013
KCNW 231455Z 30010KT 10SM SKC 16/10 A3013
KCNW 231355Z 31007KT 10SM SKC 13/09 A3014
KCNW 231255Z 30005KT 10SM SKC 11/09 A3012
KCNW 231155Z 34005KT 10SM SKC 09/07 A3008
KCNW 230355Z 36007KT 10SM SKC 13/08 A3006
KCNW 230255Z 34003KT 10SM SKC 13/08 A3006
KCNW 230155Z 36004KT 10SM SKC 14/08 A3004
KCNW 230055Z 35005KT 10SM SKC 17/07 A3004
KCNW 222355Z 34012KT 10SM SKC 20/07 A3003
KCNW 222255Z 33013KT 10SM SKC 20/07 A3003
KCNW 222155Z 29009G18KT 10SM SKC 20/08 A3004
KCNW 222055Z 29013KT 10SM SKC 20/07 A3006
KCNW 221955Z 32013G20KT 10SM SKC 20/08 A3008
KCNW 221855Z 31017G24KT 10SM SCT042 19/08 A3009
KCNW 221755Z 31014G20KT 10SM SCT040 18/08 A3011
KCNW 221655Z 30010G15KT 10SM SCT032 17/08 A3012